Portada
METAR-TAF:

METAR-TAF

Aeroports :

Cairns, Austràlia

latitud: 16-53S, longitud: 145-45E, altitud: 3 m

Observació

L'informe es va fer fa 34 minuts, a les 08:30 UTC
Vent 6 kt del Sud
Temperatura 24°C
Humitat 61%
Pressió 1011 hPa
Visibilitat 10 km o més

METAR: YBCS 060830Z AUTO 18006KT 9999 // NCD 24/16 Q1011

Hora: 19:04 (09:04 UTC)

Pronòstic

L'informe es va fer fa 1 hora i 4 minuts, a les 08:00 UTC
Pronòstic vàlid del 06 a les 09 UTC al 07 a les 06 UTC
Vent 6 kt del Sud/Sud-Est
Visibilitat 10 km o més
Escasses núvols a una alçada de 2000 ft
A partir de les 07 a les 0100 UTC
Vent 7 kt del Est/Sud-Est
Visibilitat 10 km o més
Escasses núvols a una alçada de 2500 ft
A partir de les 07 a les 0300 UTC
Vent 8 kt del Est/Nord-Est
Visibilitat 10 km o més
Escasses núvols a una alçada de 3000 ft

TAF: YBCS 060800Z 0609/0706 16006KT 9999 FEW020 FM070100 11007KT 9999 FEW025 FM070300 06008KT 9999 FEW030

Observacions i pronòstics meteorològics de més de 4000 aeroports (METAR i TAF).

Les estacions disponibles són els punts grocs i vermells al mapa.

Posi el ratolí al punt desitjat per veure el nom de l'estació.

Feu clic per veure les observacions i els pronòstics meteorològics.

Per canviar el mapa: feu clic els botons verds amb una creu de color negre per apropar; al botó verd amb un guió per allunyar la imatge; o en les fletxes verdes per a mapes adjacents.


METAR-TAF: